sensor_id;sensor_type;location;lat;lon;timestamp;pressure;altitude;pressure_sealevel;temperature;humidity
22000;BME280;11164;48.818;2.322;2023-05-22T00:00:31;100655.31;;;17.94;39.95
22000;BME280;11164;48.818;2.322;2023-05-22T00:02:57;100654.44;;;17.94;40.04
22000;BME280;11164;48.818;2.322;2023-05-22T00:05:22;100660.81;;;17.83;40.17
22000;BME280;11164;48.818;2.322;2023-05-22T00:07:48;100638.84;;;17.89;39.79
22000;BME280;11164;48.818;2.322;2023-05-22T00:10:13;100658.78;;;18.07;39.57
22000;BME280;11164;48.818;2.322;2023-05-22T00:12:38;100654.31;;;18.17;39.38
22000;BME280;11164;48.818;2.322;2023-05-22T00:15:04;100648.84;;;18.17;39.11
22000;BME280;11164;48.818;2.322;2023-05-22T00:17:30;100652.16;;;17.86;40.10
22000;BME280;11164;48.818;2.322;2023-05-22T00:19:55;100632.88;;;17.75;39.59
22000;BME280;11164;48.818;2.322;2023-05-22T00:22:26;100652.06;;;17.80;40.18
22000;BME280;11164;48.818;2.322;2023-05-22T00:24:52;100633.88;;;17.86;39.78
22000;BME280;11164;48.818;2.322;2023-05-22T00:27:17;100650.72;;;17.83;39.97
22000;BME280;11164;48.818;2.322;2023-05-22T00:29:42;100652.69;;;17.71;40.11
22000;BME280;11164;48.818;2.322;2023-05-22T00:32:08;100648.72;;;17.78;40.09
22000;BME280;11164;48.818;2.322;2023-05-22T00:34:33;100651.44;;;17.78;39.60
22000;BME280;11164;48.818;2.322;2023-05-22T00:36:58;100661.31;;;17.79;39.64
22000;BME280;11164;48.818;2.322;2023-05-22T00:39:24;100653.44;;;17.83;39.65
22000;BME280;11164;48.818;2.322;2023-05-22T00:41:49;100653.44;;;17.83;39.83
22000;BME280;11164;48.818;2.322;2023-05-22T00:44:15;100656.28;;;17.59;40.09
22000;BME280;11164;48.818;2.322;2023-05-22T00:46:40;100653.28;;;17.73;39.96
22000;BME280;11164;48.818;2.322;2023-05-22T00:49:07;100652.84;;;17.64;40.09
22000;BME280;11164;48.818;2.322;2023-05-22T00:51:32;100647.16;;;17.66;40.08
22000;BME280;11164;48.818;2.322;2023-05-22T00:53:57;100639.16;;;17.76;39.89
22000;BME280;11164;48.818;2.322;2023-05-22T00:56:23;100643.28;;;17.78;39.72
22000;BME280;11164;48.818;2.322;2023-05-22T00:58:51;100645.38;;;17.59;40.18
22000;BME280;11164;48.818;2.322;2023-05-22T01:01:17;100646.66;;;17.69;39.99
22000;BME280;11164;48.818;2.322;2023-05-22T01:03:43;100623.34;;;17.61;39.75
22000;BME280;11164;48.818;2.322;2023-05-22T01:06:15;100628.03;;;17.37;40.21
22000;BME280;11164;48.818;2.322;2023-05-22T01:08:42;100626.97;;;17.38;40.30
22000;BME280;11164;48.818;2.322;2023-05-22T01:11:18;100626.41;;;17.36;40.47
22000;BME280;11164;48.818;2.322;2023-05-22T01:19:45;100636.44;;;17.47;41.00
22000;BME280;11164;48.818;2.322;2023-05-22T01:28:10;100637.81;;;17.61;39.98
22000;BME280;11164;48.818;2.322;2023-05-22T01:31:07;100632.88;;;17.47;41.08
22000;BME280;11164;48.818;2.322;2023-05-22T01:33:42;100630.84;;;17.54;40.32
22000;BME280;11164;48.818;2.322;2023-05-22T01:36:09;100633.81;;;17.52;41.65
22000;BME280;11164;48.818;2.322;2023-05-22T01:38:37;100636.63;;;17.29;40.12
22000;BME280;11164;48.818;2.322;2023-05-22T01:41:03;100631.22;;;17.05;40.98
22000;BME280;11164;48.818;2.322;2023-05-22T01:43:29;100636.69;;;17.05;40.81
22000;BME280;11164;48.818;2.322;2023-05-22T01:45:54;100629.09;;;17.07;40.63
22000;BME280;11164;48.818;2.322;2023-05-22T01:48:20;100637.03;;;17.09;40.68
22000;BME280;11164;48.818;2.322;2023-05-22T01:50:46;100626.91;;;17.21;40.38
22000;BME280;11164;48.818;2.322;2023-05-22T01:53:29;100628.81;;;17.20;40.53
22000;BME280;11164;48.818;2.322;2023-05-22T01:56:02;100633.00;;;17.11;40.40
22000;BME280;11164;48.818;2.322;2023-05-22T01:58:56;100628.25;;;17.06;40.68
22000;BME280;11164;48.818;2.322;2023-05-22T02:01:25;100629.28;;;17.17;40.32
22000;BME280;11164;48.818;2.322;2023-05-22T02:03:54;100629.44;;;17.11;40.54
22000;BME280;11164;48.818;2.322;2023-05-22T02:06:22;100635.28;;;17.02;40.53
22000;BME280;11164;48.818;2.322;2023-05-22T02:08:50;100634.31;;;16.97;40.32
22000;BME280;11164;48.818;2.322;2023-05-22T02:11:17;100638.00;;;17.02;40.22
22000;BME280;11164;48.818;2.322;2023-05-22T02:13:45;100627.69;;;17.04;40.27
22000;BME280;11164;48.818;2.322;2023-05-22T02:16:11;100634.97;;;17.16;39.81
22000;BME280;11164;48.818;2.322;2023-05-22T02:18:36;100634.22;;;17.32;39.61
22000;BME280;11164;48.818;2.322;2023-05-22T02:21:02;100628.28;;;16.95;40.16
22000;BME280;11164;48.818;2.322;2023-05-22T02:23:29;100636.59;;;16.88;40.51
22000;BME280;11164;48.818;2.322;2023-05-22T02:25:55;100639.63;;;17.03;40.08
22000;BME280;11164;48.818;2.322;2023-05-22T02:28:20;100633.84;;;17.00;40.02
22000;BME280;11164;48.818;2.322;2023-05-22T02:30:46;100625.19;;;17.03;39.73
22000;BME280;11164;48.818;2.322;2023-05-22T02:33:11;100631.72;;;17.02;39.72
22000;BME280;11164;48.818;2.322;2023-05-22T02:35:36;100628.25;;;17.18;39.67
22000;BME280;11164;48.818;2.322;2023-05-22T02:38:02;100628.13;;;17.13;39.54
22000;BME280;11164;48.818;2.322;2023-05-22T02:40:27;100623.28;;;17.03;39.88
22000;BME280;11164;48.818;2.322;2023-05-22T02:42:53;100630.63;;;17.15;39.22
22000;BME280;11164;48.818;2.322;2023-05-22T02:45:18;100633.25;;;17.10;39.68
22000;BME280;11164;48.818;2.322;2023-05-22T02:47:43;100635.88;;;16.93;40.06
22000;BME280;11164;48.818;2.322;2023-05-22T02:50:09;100624.41;;;16.91;39.96
22000;BME280;11164;48.818;2.322;2023-05-22T02:52:34;100630.44;;;16.93;39.77
22000;BME280;11164;48.818;2.322;2023-05-22T02:55:02;100632.66;;;17.08;39.63
22000;BME280;11164;48.818;2.322;2023-05-22T02:57:28;100624.84;;;16.99;39.66
22000;BME280;11164;48.818;2.322;2023-05-22T02:59:54;100623.94;;;16.94;39.63
22000;BME280;11164;48.818;2.322;2023-05-22T03:02:19;100623.81;;;16.88;39.96
22000;BME280;11164;48.818;2.322;2023-05-22T03:04:44;100627.59;;;16.87;39.73
22000;BME280;11164;48.818;2.322;2023-05-22T03:07:10;100629.97;;;16.84;39.75
22000;BME280;11164;48.818;2.322;2023-05-22T03:09:36;100632.72;;;16.48;40.44
22000;BME280;11164;48.818;2.322;2023-05-22T03:12:02;100630.34;;;16.40;40.65
22000;BME280;11164;48.818;2.322;2023-05-22T03:14:29;100624.91;;;16.40;40.40
22000;BME280;11164;48.818;2.322;2023-05-22T03:16:54;100629.63;;;16.45;40.42
22000;BME280;11164;48.818;2.322;2023-05-22T03:19:20;100623.34;;;16.32;40.50
22000;BME280;11164;48.818;2.322;2023-05-22T03:21:45;100627.38;;;16.30;40.61
22000;BME280;11164;48.818;2.322;2023-05-22T03:24:14;100624.53;;;16.25;40.39
22000;BME280;11164;48.818;2.322;2023-05-22T03:26:39;100628.94;;;16.26;40.62
22000;BME280;11164;48.818;2.322;2023-05-22T03:29:06;100627.00;;;16.03;40.98
22000;BME280;11164;48.818;2.322;2023-05-22T03:31:32;100622.78;;;16.07;40.92
22000;BME280;11164;48.818;2.322;2023-05-22T03:33:58;100610.56;;;16.09;40.68
22000;BME280;11164;48.818;2.322;2023-05-22T03:36:23;100618.53;;;16.23;40.55
22000;BME280;11164;48.818;2.322;2023-05-22T03:38:49;100609.28;;;16.00;40.92
22000;BME280;11164;48.818;2.322;2023-05-22T03:41:16;100616.22;;;15.96;41.16
22000;BME280;11164;48.818;2.322;2023-05-22T03:43:42;100616.97;;;16.03;40.87
22000;BME280;11164;48.818;2.322;2023-05-22T03:46:07;100613.44;;;16.26;40.57
22000;BME280;11164;48.818;2.322;2023-05-22T03:48:34;100618.06;;;16.26;40.46
22000;BME280;11164;48.818;2.322;2023-05-22T03:51:00;100613.31;;;16.21;40.61
22000;BME280;11164;48.818;2.322;2023-05-22T03:53:25;100617.09;;;16.32;40.35
22000;BME280;11164;48.818;2.322;2023-05-22T03:55:50;100623.81;;;16.41;40.04
22000;BME280;11164;48.818;2.322;2023-05-22T03:58:15;100623.47;;;16.49;39.85
22000;BME280;11164;48.818;2.322;2023-05-22T04:00:41;100626.78;;;16.51;39.81
22000;BME280;11164;48.818;2.322;2023-05-22T04:03:06;100634.72;;;16.53;39.82
22000;BME280;11164;48.818;2.322;2023-05-22T04:05:37;100642.41;;;16.44;40.17
22000;BME280;11164;48.818;2.322;2023-05-22T04:08:02;100642.53;;;16.38;40.43
22000;BME280;11164;48.818;2.322;2023-05-22T04:10:27;100648.94;;;16.43;40.38
22000;BME280;11164;48.818;2.322;2023-05-22T04:12:53;100652.94;;;16.29;40.45
22000;BME280;11164;48.818;2.322;2023-05-22T04:15:18;100654.94;;;16.22;40.75
22000;BME280;11164;48.818;2.322;2023-05-22T04:17:43;100644.06;;;16.34;40.84
22000;BME280;11164;48.818;2.322;2023-05-22T04:20:09;100633.41;;;16.56;40.22
22000;BME280;11164;48.818;2.322;2023-05-22T04:22:35;100645.00;;;16.51;40.09
22000;BME280;11164;48.818;2.322;2023-05-22T04:25:00;100640.63;;;16.50;40.20
22000;BME280;11164;48.818;2.322;2023-05-22T04:27:26;100642.16;;;16.34;40.84
22000;BME280;11164;48.818;2.322;2023-05-22T04:29:54;100649.16;;;16.54;40.45
22000;BME280;11164;48.818;2.322;2023-05-22T04:32:19;100651.41;;;16.57;40.27
22000;BME280;11164;48.818;2.322;2023-05-22T04:34:48;100652.72;;;16.42;40.50
22000;BME280;11164;48.818;2.322;2023-05-22T04:37:17;100662.53;;;16.67;39.89
22000;BME280;11164;48.818;2.322;2023-05-22T04:39:45;100653.66;;;16.60;40.29
22000;BME280;11164;48.818;2.322;2023-05-22T04:42:13;100657.06;;;16.55;40.50
22000;BME280;11164;48.818;2.322;2023-05-22T04:44:40;100658.84;;;16.61;39.92
22000;BME280;11164;48.818;2.322;2023-05-22T04:47:06;100658.03;;;16.73;39.90
22000;BME280;11164;48.818;2.322;2023-05-22T04:49:35;100651.19;;;16.70;39.80
22000;BME280;11164;48.818;2.322;2023-05-22T04:52:01;100650.50;;;16.63;39.93
22000;BME280;11164;48.818;2.322;2023-05-22T04:54:28;100670.34;;;16.87;39.86
22000;BME280;11164;48.818;2.322;2023-05-22T04:56:54;100651.19;;;16.70;39.84
22000;BME280;11164;48.818;2.322;2023-05-22T04:59:19;100662.53;;;16.91;40.00
22000;BME280;11164;48.818;2.322;2023-05-22T05:01:48;100658.50;;;16.93;39.82
22000;BME280;11164;48.818;2.322;2023-05-22T05:04:14;100666.09;;;16.79;39.88
22000;BME280;11164;48.818;2.322;2023-05-22T05:06:40;100671.75;;;16.78;39.98
22000;BME280;11164;48.818;2.322;2023-05-22T05:09:07;100676.28;;;16.72;40.33
22000;BME280;11164;48.818;2.322;2023-05-22T05:11:33;100665.38;;;16.48;40.77
22000;BME280;11164;48.818;2.322;2023-05-22T05:13:58;100671.66;;;16.73;40.42
22000;BME280;11164;48.818;2.322;2023-05-22T05:16:24;100674.75;;;16.64;40.53
22000;BME280;11164;48.818;2.322;2023-05-22T05:18:50;100671.41;;;16.86;40.38
22000;BME280;11164;48.818;2.322;2023-05-22T05:21:16;100663.56;;;17.01;39.91
22000;BME280;11164;48.818;2.322;2023-05-22T05:23:41;100664.22;;;16.80;40.46
22000;BME280;11164;48.818;2.322;2023-05-22T05:26:07;100661.19;;;17.05;40.15
22000;BME280;11164;48.818;2.322;2023-05-22T05:28:32;100659.13;;;16.72;40.53
22000;BME280;11164;48.818;2.322;2023-05-22T05:30:57;100649.53;;;16.69;41.10
22000;BME280;11164;48.818;2.322;2023-05-22T05:33:22;100641.56;;;16.79;40.47
22000;BME280;11164;48.818;2.322;2023-05-22T05:35:48;100663.44;;;17.08;40.20
22000;BME280;11164;48.818;2.322;2023-05-22T05:38:16;100664.09;;;17.27;40.12
22000;BME280;11164;48.818;2.322;2023-05-22T05:40:43;100665.78;;;17.57;39.60
22000;BME280;11164;48.818;2.322;2023-05-22T05:43:09;100663.56;;;17.42;39.77
22000;BME280;11164;48.818;2.322;2023-05-22T05:45:34;100663.72;;;17.35;40.25
22000;BME280;11164;48.818;2.322;2023-05-22T05:47:59;100656.00;;;17.44;40.05
22000;BME280;11164;48.818;2.322;2023-05-22T05:50:25;100665.50;;;17.70;39.87
22000;BME280;11164;48.818;2.322;2023-05-22T05:52:50;100658.75;;;17.32;40.52
22000;BME280;11164;48.818;2.322;2023-05-22T05:55:16;100654.56;;;17.41;40.40
22000;BME280;11164;48.818;2.322;2023-05-22T05:57:41;100646.75;;;17.74;39.69
22000;BME280;11164;48.818;2.322;2023-05-22T06:00:07;100651.88;;;17.70;39.90
22000;BME280;11164;48.818;2.322;2023-05-22T06:02:35;100653.69;;;17.81;39.77
22000;BME280;11164;48.818;2.322;2023-05-22T06:05:02;100648.47;;;17.63;40.29
22000;BME280;11164;48.818;2.322;2023-05-22T06:07:34;100652.06;;;17.52;40.20
22000;BME280;11164;48.818;2.322;2023-05-22T06:10:03;100654.75;;;17.63;39.86
22000;BME280;11164;48.818;2.322;2023-05-22T06:12:29;100655.03;;;17.38;40.35
22000;BME280;11164;48.818;2.322;2023-05-22T06:14:55;100654.56;;;17.41;40.63
22000;BME280;11164;48.818;2.322;2023-05-22T06:17:20;100658.88;;;17.66;40.00
22000;BME280;11164;48.818;2.322;2023-05-22T06:19:46;100653.16;;;18.13;39.40
22000;BME280;11164;48.818;2.322;2023-05-22T06:22:11;100656.13;;;18.12;39.39
22000;BME280;11164;48.818;2.322;2023-05-22T06:24:36;100652.66;;;18.16;39.68
22000;BME280;11164;48.818;2.322;2023-05-22T06:27:02;100657.84;;;18.18;39.47
22000;BME280;11164;48.818;2.322;2023-05-22T06:29:27;100657.56;;;18.31;39.45
22000;BME280;11164;48.818;2.322;2023-05-22T06:31:54;100658.88;;;18.46;39.26
22000;BME280;11164;48.818;2.322;2023-05-22T06:34:20;100663.50;;;18.62;39.10
22000;BME280;11164;48.818;2.322;2023-05-22T06:36:46;100668.34;;;18.60;39.27
22000;BME280;11164;48.818;2.322;2023-05-22T06:39:14;100669.97;;;18.95;38.85
22000;BME280;11164;48.818;2.322;2023-05-22T06:41:40;100669.91;;;18.73;39.24
22000;BME280;11164;48.818;2.322;2023-05-22T06:44:05;100671.69;;;18.62;39.13
22000;BME280;11164;48.818;2.322;2023-05-22T06:46:31;100673.75;;;18.94;38.69
22000;BME280;11164;48.818;2.322;2023-05-22T06:48:56;100676.16;;;19.07;38.86
22000;BME280;11164;48.818;2.322;2023-05-22T06:51:21;100675.56;;;19.05;38.63
22000;BME280;11164;48.818;2.322;2023-05-22T06:53:48;100676.50;;;18.94;38.94
22000;BME280;11164;48.818;2.322;2023-05-22T06:56:13;100682.69;;;18.67;39.25
22000;BME280;11164;48.818;2.322;2023-05-22T06:58:39;100683.44;;;18.63;39.45
22000;BME280;11164;48.818;2.322;2023-05-22T07:01:04;100687.97;;;19.13;38.36
22000;BME280;11164;48.818;2.322;2023-05-22T07:03:29;100687.34;;;19.06;38.48
22000;BME280;11164;48.818;2.322;2023-05-22T07:05:55;100684.09;;;19.09;38.74
22000;BME280;11164;48.818;2.322;2023-05-22T07:08:22;100694.75;;;19.10;38.81
22000;BME280;11164;48.818;2.322;2023-05-22T07:10:47;100685.41;;;19.50;37.57
22000;BME280;11164;48.818;2.322;2023-05-22T07:13:12;100693.31;;;19.74;37.52
22000;BME280;11164;48.818;2.322;2023-05-22T07:15:38;100687.94;;;19.57;37.97
22000;BME280;11164;48.818;2.322;2023-05-22T07:18:03;100687.66;;;19.81;37.47
22000;BME280;11164;48.818;2.322;2023-05-22T07:20:28;100684.25;;;20.28;36.94
22000;BME280;11164;48.818;2.322;2023-05-22T07:22:54;100688.41;;;20.31;37.00
22000;BME280;11164;48.818;2.322;2023-05-22T07:25:19;100692.69;;;20.21;37.11
22000;BME280;11164;48.818;2.322;2023-05-22T07:27:45;100697.59;;;20.19;37.15
22000;BME280;11164;48.818;2.322;2023-05-22T07:30:10;100702.22;;;20.46;36.87
22000;BME280;11164;48.818;2.322;2023-05-22T07:32:36;100696.72;;;20.14;37.42
22000;BME280;11164;48.818;2.322;2023-05-22T07:35:01;100706.22;;;20.06;37.70
22000;BME280;11164;48.818;2.322;2023-05-22T07:37:26;100695.34;;;20.81;36.62
22000;BME280;11164;48.818;2.322;2023-05-22T07:39:53;100703.25;;;20.72;36.73
22000;BME280;11164;48.818;2.322;2023-05-22T07:42:20;100709.56;;;20.46;36.94
22000;BME280;11164;48.818;2.322;2023-05-22T07:44:45;100702.13;;;20.73;36.39
22000;BME280;11164;48.818;2.322;2023-05-22T07:47:11;100714.66;;;21.02;36.11
22000;BME280;11164;48.818;2.322;2023-05-22T07:49:36;100708.09;;;21.13;35.98
22000;BME280;11164;48.818;2.322;2023-05-22T07:52:01;100715.09;;;20.88;36.30
22000;BME280;11164;48.818;2.322;2023-05-22T07:54:27;100716.47;;;20.91;36.58
22000;BME280;11164;48.818;2.322;2023-05-22T07:56:52;100710.53;;;21.04;36.28
22000;BME280;11164;48.818;2.322;2023-05-22T07:59:20;100705.25;;;20.92;36.28
22000;BME280;11164;48.818;2.322;2023-05-22T08:01:45;100713.97;;;20.79;36.60
22000;BME280;11164;48.818;2.322;2023-05-22T08:04:11;100708.72;;;20.72;36.53
22000;BME280;11164;48.818;2.322;2023-05-22T08:06:36;100714.09;;;20.57;36.64
22000;BME280;11164;48.818;2.322;2023-05-22T08:09:02;100729.63;;;20.51;36.83
22000;BME280;11164;48.818;2.322;2023-05-22T08:11:28;100720.16;;;20.32;36.88
22000;BME280;11164;48.818;2.322;2023-05-22T08:13:54;100720.09;;;20.27;37.04
22000;BME280;11164;48.818;2.322;2023-05-22T08:16:20;100716.53;;;20.26;36.99
22000;BME280;11164;48.818;2.322;2023-05-22T08:18:46;100720.69;;;20.29;37.03
22000;BME280;11164;48.818;2.322;2023-05-22T08:21:11;100730.78;;;20.55;36.79
22000;BME280;11164;48.818;2.322;2023-05-22T08:23:36;100721.19;;;20.58;36.50
22000;BME280;11164;48.818;2.322;2023-05-22T08:26:03;100728.75;;;20.13;37.17
22000;BME280;11164;48.818;2.322;2023-05-22T08:28:28;100723.91;;;20.20;36.92
22000;BME280;11164;48.818;2.322;2023-05-22T08:30:53;100725.91;;;20.62;36.37
22000;BME280;11164;48.818;2.322;2023-05-22T08:33:19;100721.16;;;20.90;35.84
22000;BME280;11164;48.818;2.322;2023-05-22T08:35:44;100729.50;;;20.68;36.35
22000;BME280;11164;48.818;2.322;2023-05-22T08:38:10;100727.69;;;20.89;36.11
22000;BME280;11164;48.818;2.322;2023-05-22T08:40:36;100727.84;;;20.67;36.33
22000;BME280;11164;48.818;2.322;2023-05-22T08:43:03;100736.19;;;20.83;36.29
22000;BME280;11164;48.818;2.322;2023-05-22T08:45:30;100719.47;;;20.89;36.24
22000;BME280;11164;48.818;2.322;2023-05-22T08:47:58;100732.16;;;21.00;36.08
22000;BME280;11164;48.818;2.322;2023-05-22T08:50:28;100730.31;;;21.11;36.11
22000;BME280;11164;48.818;2.322;2023-05-22T08:52:55;100738.00;;;21.14;35.80
22000;BME280;11164;48.818;2.322;2023-05-22T08:55:23;100731.88;;;21.55;35.48
22000;BME280;11164;48.818;2.322;2023-05-22T08:57:49;100735.81;;;21.85;35.10
22000;BME280;11164;48.818;2.322;2023-05-22T09:00:16;100734.97;;;21.79;35.12
22000;BME280;11164;48.818;2.322;2023-05-22T09:02:41;100739.59;;;21.63;35.38
22000;BME280;11164;48.818;2.322;2023-05-22T09:05:08;100746.22;;;21.78;34.99
22000;BME280;11164;48.818;2.322;2023-05-22T09:07:34;100741.28;;;21.85;34.86
22000;BME280;11164;48.818;2.322;2023-05-22T09:09:59;100746.25;;;21.88;34.70
22000;BME280;11164;48.818;2.322;2023-05-22T09:12:30;100751.53;;;22.15;34.22
22000;BME280;11164;48.818;2.322;2023-05-22T09:14:56;100739.94;;;21.87;35.01
22000;BME280;11164;48.818;2.322;2023-05-22T09:17:22;100758.41;;;22.18;34.35
22000;BME280;11164;48.818;2.322;2023-05-22T09:19:48;100747.91;;;21.84;34.95
22000;BME280;11164;48.818;2.322;2023-05-22T09:22:13;100755.09;;;22.00;34.79
22000;BME280;11164;48.818;2.322;2023-05-22T09:24:44;100747.97;;;22.09;34.39
22000;BME280;11164;48.818;2.322;2023-05-22T09:27:12;100759.50;;;22.01;34.29
22000;BME280;11164;48.818;2.322;2023-05-22T09:29:49;100743.28;;;22.00;34.66
22000;BME280;11164;48.818;2.322;2023-05-22T09:32:15;100761.44;;;22.21;34.71
22000;BME280;11164;48.818;2.322;2023-05-22T09:34:49;100755.97;;;22.16;34.51
22000;BME280;11164;48.818;2.322;2023-05-22T09:37:16;100756.22;;;22.45;34.63
22000;BME280;11164;48.818;2.322;2023-05-22T09:39:43;100755.13;;;22.36;34.73
22000;BME280;11164;48.818;2.322;2023-05-22T09:42:09;100750.72;;;22.56;34.30
22000;BME280;11164;48.818;2.322;2023-05-22T09:44:39;100749.13;;;22.65;34.43
22000;BME280;11164;48.818;2.322;2023-05-22T09:47:07;100741.94;;;22.54;34.37
22000;BME280;11164;48.818;2.322;2023-05-22T09:49:43;100757.06;;;22.46;34.14
22000;BME280;11164;48.818;2.322;2023-05-22T09:52:09;100749.63;;;22.57;34.59
22000;BME280;11164;48.818;2.322;2023-05-22T09:54:51;100746.78;;;23.13;33.39
22000;BME280;11164;48.818;2.322;2023-05-22T09:57:20;100744.38;;;23.07;33.99
22000;BME280;11164;48.818;2.322;2023-05-22T09:59:50;100726.94;;;23.27;32.76
22000;BME280;11164;48.818;2.322;2023-05-22T10:02:21;100735.16;;;23.47;33.41
22000;BME280;11164;48.818;2.322;2023-05-22T10:04:48;100735.66;;;23.59;33.39
22000;BME280;11164;48.818;2.322;2023-05-22T10:07:21;100729.06;;;23.55;33.25
22000;BME280;11164;48.818;2.322;2023-05-22T10:09:51;100729.16;;;23.90;32.92
22000;BME280;11164;48.818;2.322;2023-05-22T10:12:20;100734.91;;;23.98;32.84
22000;BME280;11164;48.818;2.322;2023-05-22T10:14:46;100728.84;;;23.96;33.12
22000;BME280;11164;48.818;2.322;2023-05-22T10:17:12;100716.91;;;24.11;32.76
22000;BME280;11164;48.818;2.322;2023-05-22T10:19:39;100723.78;;;24.09;32.83
22000;BME280;11164;48.818;2.322;2023-05-22T10:22:07;100723.94;;;23.93;33.22
22000;BME280;11164;48.818;2.322;2023-05-22T10:24:33;100721.47;;;23.87;32.79
22000;BME280;11164;48.818;2.322;2023-05-22T10:26:58;100722.06;;;23.78;33.21
22000;BME280;11164;48.818;2.322;2023-05-22T10:29:29;100727.31;;;23.75;33.39
22000;BME280;11164;48.818;2.322;2023-05-22T10:32:00;100728.88;;;23.86;33.28
22000;BME280;11164;48.818;2.322;2023-05-22T10:37:52;100711.75;;;23.45;33.20
22000;BME280;11164;48.818;2.322;2023-05-22T10:40:24;100718.41;;;23.38;33.61
22000;BME280;11164;48.818;2.322;2023-05-22T10:42:59;100712.94;;;23.23;33.98
22000;BME280;11164;48.818;2.322;2023-05-22T10:45:26;100707.44;;;23.23;33.68
22000;BME280;11164;48.818;2.322;2023-05-22T10:48:05;100716.22;;;23.35;33.15
22000;BME280;11164;48.818;2.322;2023-05-22T10:50:32;100714.22;;;23.51;33.58
22000;BME280;11164;48.818;2.322;2023-05-22T10:53:17;100706.84;;;23.91;32.31
22000;BME280;11164;48.818;2.322;2023-05-22T10:55:47;100711.38;;;23.67;33.20
22000;BME280;11164;48.818;2.322;2023-05-22T10:58:14;100705.97;;;23.51;33.24
22000;BME280;11164;48.818;2.322;2023-05-22T11:00:40;100710.97;;;23.89;32.98
22000;BME280;11164;48.818;2.322;2023-05-22T11:03:05;100698.34;;;24.22;32.51
22000;BME280;11164;48.818;2.322;2023-05-22T11:08:57;100707.88;;;24.06;32.69
22000;BME280;11164;48.818;2.322;2023-05-22T11:11:08;100693.06;;;23.91;32.49
22000;BME280;11164;48.818;2.322;2023-05-22T11:13:35;100705.59;;;23.68;33.45
22000;BME280;11164;48.818;2.322;2023-05-22T11:16:04;100709.88;;;23.90;33.34
22000;BME280;11164;48.818;2.322;2023-05-22T11:18:30;100689.09;;;24.42;32.58
22000;BME280;11164;48.818;2.322;2023-05-22T11:20:58;100691.38;;;24.35;32.92
22000;BME280;11164;48.818;2.322;2023-05-22T11:23:24;100703.59;;;24.53;32.56
22000;BME280;11164;48.818;2.322;2023-05-22T11:25:50;100701.41;;;24.79;32.36
22000;BME280;11164;48.818;2.322;2023-05-22T11:28:15;100701.09;;;24.86;32.07
22000;BME280;11164;48.818;2.322;2023-05-22T11:30:42;100701.66;;;24.83;32.50
22000;BME280;11164;48.818;2.322;2023-05-22T11:33:07;100696.97;;;25.07;32.06
22000;BME280;11164;48.818;2.322;2023-05-22T11:35:33;100691.44;;;25.07;32.23
22000;BME280;11164;48.818;2.322;2023-05-22T11:38:03;100699.22;;;25.29;31.96
22000;BME280;11164;48.818;2.322;2023-05-22T11:40:29;100697.81;;;25.51;31.74
22000;BME280;11164;48.818;2.322;2023-05-22T11:42:55;100684.59;;;25.29;31.75
22000;BME280;11164;48.818;2.322;2023-05-22T11:45:21;100694.88;;;25.42;31.87
22000;BME280;11164;48.818;2.322;2023-05-22T11:47:47;100681.53;;;24.82;32.48
22000;BME280;11164;48.818;2.322;2023-05-22T11:50:13;100693.59;;;25.16;32.07
22000;BME280;11164;48.818;2.322;2023-05-22T11:52:41;100692.72;;;24.67;32.22
22000;BME280;11164;48.818;2.322;2023-05-22T11:55:08;100688.63;;;25.13;32.39
22000;BME280;11164;48.818;2.322;2023-05-22T11:57:34;100699.91;;;25.59;31.53
22000;BME280;11164;48.818;2.322;2023-05-22T12:00:00;100695.44;;;25.82;31.20
22000;BME280;11164;48.818;2.322;2023-05-22T12:02:26;100692.22;;;25.75;31.16
22000;BME280;11164;48.818;2.322;2023-05-22T12:04:57;100689.13;;;25.39;31.03
22000;BME280;11164;48.818;2.322;2023-05-22T12:07:24;100688.06;;;25.78;31.46
22000;BME280;11164;48.818;2.322;2023-05-22T12:09:50;100695.38;;;25.88;31.23
22000;BME280;11164;48.818;2.322;2023-05-22T12:12:15;100685.50;;;26.00;30.70
22000;BME280;11164;48.818;2.322;2023-05-22T12:14:43;100685.66;;;25.90;30.88
22000;BME280;11164;48.818;2.322;2023-05-22T12:17:11;100680.22;;;25.85;30.89
22000;BME280;11164;48.818;2.322;2023-05-22T12:19:38;100671.13;;;26.36;30.67
22000;BME280;11164;48.818;2.322;2023-05-22T12:22:04;100670.44;;;26.26;30.68
22000;BME280;11164;48.818;2.322;2023-05-22T12:24:43;100673.81;;;26.41;29.62
22000;BME280;11164;48.818;2.322;2023-05-22T12:27:12;100673.75;;;26.28;30.54
22000;BME280;11164;48.818;2.322;2023-05-22T12:29:38;100679.13;;;26.52;30.31
22000;BME280;11164;48.818;2.322;2023-05-22T12:32:07;100692.97;;;26.66;28.62
22000;BME280;11164;48.818;2.322;2023-05-22T12:34:34;100684.47;;;26.29;30.24
22000;BME280;11164;48.818;2.322;2023-05-22T12:37:00;100686.13;;;26.77;29.58
22000;BME280;11164;48.818;2.322;2023-05-22T12:39:26;100673.34;;;26.95;29.58
22000;BME280;11164;48.818;2.322;2023-05-22T12:41:52;100671.47;;;26.30;30.51
22000;BME280;11164;48.818;2.322;2023-05-22T12:44:17;100663.78;;;26.59;29.86
22000;BME280;11164;48.818;2.322;2023-05-22T12:46:43;100683.63;;;27.45;28.96
22000;BME280;11164;48.818;2.322;2023-05-22T12:49:09;100682.44;;;26.68;29.89
22000;BME280;11164;48.818;2.322;2023-05-22T12:51:35;100684.44;;;25.96;30.38
22000;BME280;11164;48.818;2.322;2023-05-22T12:54:02;100684.09;;;26.36;30.01
22000;BME280;11164;48.818;2.322;2023-05-22T12:56:30;100680.72;;;27.00;29.16
22000;BME280;11164;48.818;2.322;2023-05-22T12:58:58;100680.16;;;27.39;29.21
22000;BME280;11164;48.818;2.322;2023-05-22T13:01:24;100689.78;;;27.56;28.56
22000;BME280;11164;48.818;2.322;2023-05-22T13:03:51;100676.28;;;27.99;28.27
22000;BME280;11164;48.818;2.322;2023-05-22T13:06:17;100674.78;;;28.70;27.52